createdAt,value
2019-05-19T00:00:52.151Z,97672.69
2019-05-19T00:01:54.687Z,97671.69
2019-05-19T00:02:57.201Z,97674.14
2019-05-19T00:04:01.293Z,97675.04
2019-05-19T00:05:05.355Z,97673.02
2019-05-19T00:06:08.306Z,97671.98
2019-05-19T00:07:10.280Z,97675.36
2019-05-19T00:08:13.199Z,97675.66
2019-05-19T00:09:16.703Z,97676.67
2019-05-19T00:10:19.534Z,97670.64
2019-05-19T00:11:22.348Z,97678.93
2019-05-19T00:12:26.687Z,97680.77
2019-05-19T00:13:29.515Z,97681.84
2019-05-19T00:14:32.272Z,97678.05
2019-05-19T00:15:36.892Z,97678.05
2019-05-19T00:16:39.256Z,97670.06
2019-05-19T00:17:41.702Z,97679.88
2019-05-19T00:18:45.938Z,97672.12
2019-05-19T00:19:48.653Z,97673.22
2019-05-19T00:20:51.216Z,97670.77
2019-05-19T00:21:53.648Z,97675.98
2019-05-19T00:22:56.556Z,97672.00
2019-05-19T00:23:59.885Z,97678.13
2019-05-19T00:25:02.858Z,97678.95
2019-05-19T00:26:07.258Z,97678.02
2019-05-19T00:27:09.977Z,97686.03
2019-05-19T00:28:13.108Z,97679.02
2019-05-19T00:29:15.590Z,97680.89
2019-05-19T00:30:19.964Z,97678.95
2019-05-19T00:31:22.512Z,97676.79
2019-05-19T00:32:25.125Z,97681.90
2019-05-19T00:33:27.798Z,97672.81
2019-05-19T00:34:29.940Z,97679.08
2019-05-19T00:35:33.294Z,97681.64
2019-05-19T00:36:35.965Z,97679.59
2019-05-19T00:37:39.363Z,97677.63
2019-05-19T00:38:42.281Z,97679.66
2019-05-19T00:39:45.636Z,97679.36
2019-05-19T00:40:48.440Z,97678.13
2019-05-19T00:41:51.179Z,97679.06
2019-05-19T00:42:53.395Z,97672.67
2019-05-19T00:43:55.912Z,97673.30
2019-05-19T00:44:58.281Z,97679.73
2019-05-19T00:46:00.474Z,97679.43
2019-05-19T00:47:04.581Z,97679.92
2019-05-19T00:48:07.475Z,97680.85
2019-05-19T00:49:09.440Z,97682.04
2019-05-19T00:50:13.704Z,97680.60
2019-05-19T00:51:16.474Z,97686.34
2019-05-19T00:52:18.726Z,97675.87
2019-05-19T00:53:21.730Z,97676.89
2019-05-19T00:54:24.874Z,97681.17
2019-05-19T00:55:28.857Z,97676.28
2019-05-19T00:56:32.375Z,97681.22
2019-05-19T00:57:37.221Z,97681.22
2019-05-19T00:58:40.870Z,97677.39
2019-05-19T00:59:44.722Z,97681.31
2019-05-19T01:00:46.505Z,97676.98
2019-05-19T01:01:49.424Z,97676.91
2019-05-19T01:02:54.066Z,97678.98
2019-05-19T01:03:55.814Z,97679.13
2019-05-19T01:04:58.451Z,97681.39
2019-05-19T01:06:01.159Z,97676.27
2019-05-19T01:07:03.349Z,97678.83
2019-05-19T01:08:09.707Z,97678.93
2019-05-19T01:09:13.246Z,97677.30
2019-05-19T01:10:17.604Z,97682.13
2019-05-19T01:11:20.156Z,97679.78
2019-05-19T01:12:22.112Z,97682.55
2019-05-19T01:13:24.981Z,97677.70
2019-05-19T01:14:27.722Z,97679.45
2019-05-19T01:15:30.531Z,97678.31
2019-05-19T01:16:32.953Z,97678.13
2019-05-19T01:17:35.487Z,97677.89
2019-05-19T01:18:37.837Z,97676.16
2019-05-19T01:19:40.271Z,97672.27
2019-05-19T01:20:42.957Z,97673.11
2019-05-19T01:21:44.874Z,97665.12
2019-05-19T01:22:47.711Z,97677.06
2019-05-19T01:23:50.188Z,97668.17
2019-05-19T01:24:52.394Z,97666.35
2019-05-19T01:25:54.723Z,97669.42
2019-05-19T01:26:57.037Z,97664.91
2019-05-19T01:27:59.038Z,97657.84
2019-05-19T01:29:01.673Z,97656.84
2019-05-19T01:30:07.847Z,97658.36
2019-05-19T01:31:10.824Z,97654.59
2019-05-19T01:32:13.454Z,97645.27
2019-05-19T01:33:16.414Z,97650.69
2019-05-19T01:34:18.548Z,97647.53
2019-05-19T01:35:20.918Z,97649.15
2019-05-19T01:36:23.574Z,97644.44
2019-05-19T01:37:26.154Z,97645.59
2019-05-19T01:38:28.632Z,97643.23
2019-05-19T01:39:31.665Z,97637.98
2019-05-19T01:40:34.191Z,97642.41
2019-05-19T01:41:37.065Z,97635.64
2019-05-19T01:42:39.504Z,97637.88
2019-05-19T01:43:42.493Z,97635.35
2019-05-19T01:44:46.222Z,97635.75
2019-05-19T01:45:47.878Z,97631.55
2019-05-19T01:46:49.929Z,97637.98
2019-05-19T01:47:52.724Z,97638.48
2019-05-19T01:48:55.381Z,97637.57
2019-05-19T01:50:16.579Z,97639.08
2019-05-19T01:51:02.221Z,97637.56
2019-05-19T01:52:07.355Z,97635.89
2019-05-19T01:53:09.709Z,97644.14
2019-05-19T01:54:12.237Z,97644.31
2019-05-19T01:55:14.227Z,97646.91
2019-05-19T01:56:16.821Z,97643.61
2019-05-19T01:57:19.104Z,97656.55
2019-05-19T01:58:23.254Z,97649.67
2019-05-19T01:59:25.708Z,97651.56
2019-05-19T02:00:28.167Z,97654.29
2019-05-19T02:01:30.867Z,97647.27
2019-05-19T02:02:33.746Z,97648.25
2019-05-19T02:03:36.259Z,97648.63
2019-05-19T02:04:38.668Z,97650.14
2019-05-19T02:05:41.073Z,97650.09
2019-05-19T02:06:44.571Z,97646.35
2019-05-19T02:07:47.334Z,97649.62
2019-05-19T02:08:49.938Z,97650.59
2019-05-19T02:09:52.523Z,97647.02
2019-05-19T02:10:54.980Z,97644.23
2019-05-19T02:11:57.467Z,97645.52
2019-05-19T02:12:59.694Z,97651.70
2019-05-19T02:14:02.474Z,97654.67
2019-05-19T02:15:07.313Z,97643.95
2019-05-19T02:16:11.417Z,97648.93
2019-05-19T02:17:14.166Z,97649.67
2019-05-19T02:18:17.052Z,97646.14
2019-05-19T02:19:19.651Z,97653.87
2019-05-19T02:20:32.671Z,97650.92
2019-05-19T02:21:25.901Z,97653.08
2019-05-19T02:22:28.852Z,97652.89
2019-05-19T02:23:31.738Z,97656.94
2019-05-19T02:24:35.649Z,97659.63
2019-05-19T02:25:37.428Z,97654.95
2019-05-19T02:26:40.281Z,97660.98
2019-05-19T02:27:43.143Z,97653.25
2019-05-19T02:28:45.561Z,97654.43
2019-05-19T02:29:47.951Z,97657.42
2019-05-19T02:30:50.660Z,97655.08
2019-05-19T02:31:53.493Z,97657.55
2019-05-19T02:32:57.890Z,97655.20
2019-05-19T02:34:00.074Z,97657.62
2019-05-19T02:35:04.732Z,97650.70
2019-05-19T02:36:07.056Z,97651.42
2019-05-19T02:37:09.559Z,97655.09
2019-05-19T02:38:12.574Z,97651.14
2019-05-19T02:39:14.978Z,97648.59
2019-05-19T02:40:17.564Z,97644.91
2019-05-19T02:41:23.184Z,97653.04
2019-05-19T02:42:27.965Z,97644.86
2019-05-19T02:43:31.526Z,97650.03
2019-05-19T02:44:37.007Z,97652.02
2019-05-19T02:45:40.028Z,97646.84
2019-05-19T02:46:43.706Z,97647.06
2019-05-19T02:47:48.959Z,97650.18
2019-05-19T02:48:52.739Z,97653.27
2019-05-19T02:49:57.272Z,97651.24
2019-05-19T02:51:02.668Z,97648.59
2019-05-19T02:52:06.582Z,97648.03
2019-05-19T02:53:11.223Z,97651.18
2019-05-19T02:54:14.461Z,97655.09
2019-05-19T02:55:17.915Z,97656.06
2019-05-19T02:56:21.236Z,97653.71
2019-05-19T02:57:23.444Z,97658.28
2019-05-19T02:58:26.387Z,97653.78
2019-05-19T02:59:31.039Z,97651.66
2019-05-19T03:00:41.030Z,97657.69
2019-05-19T03:02:03.460Z,97659.48
2019-05-19T03:03:06.742Z,97654.77
2019-05-19T03:04:09.264Z,97656.75
2019-05-19T03:05:12.774Z,97659.34
2019-05-19T03:06:15.304Z,97657.70
2019-05-19T03:07:18.154Z,97662.98
2019-05-19T03:08:20.505Z,97668.22
2019-05-19T03:09:23.155Z,97665.94
2019-05-19T03:10:25.545Z,97669.67
2019-05-19T03:11:29.387Z,97666.24
2019-05-19T03:12:31.883Z,97667.94
2019-05-19T03:13:35.186Z,97662.53
2019-05-19T03:14:37.645Z,97665.47
2019-05-19T03:15:39.408Z,97664.09
2019-05-19T03:16:42.069Z,97663.10
2019-05-19T03:17:44.589Z,97665.45
2019-05-19T03:18:46.977Z,97666.43
2019-05-19T03:19:49.467Z,97664.77
2019-05-19T03:21:09.828Z,97661.24
2019-05-19T03:21:57.384Z,97665.66
2019-05-19T03:23:00.154Z,97664.48
2019-05-19T03:24:04.632Z,97667.56
2019-05-19T03:25:06.833Z,97664.61
2019-05-19T03:26:09.621Z,97658.56
2019-05-19T03:27:12.468Z,97667.11
2019-05-19T03:28:15.052Z,97665.66
2019-05-19T03:29:20.226Z,97668.45
2019-05-19T03:30:28.244Z,97671.16
2019-05-19T03:31:32.905Z,97674.95
2019-05-19T03:32:37.330Z,97671.28
2019-05-19T03:33:44.761Z,97665.14
2019-05-19T03:34:47.784Z,97667.80
2019-05-19T03:35:50.275Z,97663.88
2019-05-19T03:36:52.335Z,97668.45
2019-05-19T03:37:56.695Z,97664.61
2019-05-19T03:38:59.281Z,97663.46
2019-05-19T03:40:03.381Z,97665.47
2019-05-19T03:41:06.184Z,97668.58
2019-05-19T03:42:10.533Z,97664.67
2019-05-19T03:43:13.106Z,97667.23
2019-05-19T03:44:15.636Z,97670.91
2019-05-19T03:45:18.725Z,97671.28
2019-05-19T03:46:21.464Z,97668.87
2019-05-19T03:47:24.322Z,97670.53
2019-05-19T03:48:27.149Z,97676.97
2019-05-19T03:49:29.525Z,97676.47
2019-05-19T03:50:32.058Z,97674.25
2019-05-19T03:51:33.749Z,97673.81
2019-05-19T03:52:38.586Z,97679.30
2019-05-19T03:53:40.921Z,97676.47
2019-05-19T03:54:42.617Z,97682.42
2019-05-19T03:55:44.939Z,97681.77
2019-05-19T03:56:47.649Z,97680.57
2019-05-19T03:57:50.504Z,97676.72
2019-05-19T03:58:52.863Z,97669.27
2019-05-19T03:59:55.267Z,97668.95
2019-05-19T04:00:57.928Z,97672.35
2019-05-19T04:02:00.283Z,97673.09
2019-05-19T04:03:02.842Z,97673.49
2019-05-19T04:04:04.727Z,97673.74
2019-05-19T04:05:07.785Z,97668.93
2019-05-19T04:06:11.213Z,97675.07
2019-05-19T04:07:13.881Z,97677.26
2019-05-19T04:08:16.149Z,97675.34
2019-05-19T04:09:17.898Z,97669.80
2019-05-19T04:10:20.541Z,97671.06
2019-05-19T04:11:24.974Z,97671.00
2019-05-19T04:12:27.356Z,97669.39
2019-05-19T04:13:29.869Z,97672.16
2019-05-19T04:14:32.857Z,97673.08
2019-05-19T04:15:34.883Z,97670.66
2019-05-19T04:16:37.183Z,97667.77
2019-05-19T04:17:39.833Z,97669.28
2019-05-19T04:18:42.241Z,97669.94
2019-05-19T04:19:46.714Z,97664.08
2019-05-19T04:20:50.530Z,97667.46
2019-05-19T04:21:53.153Z,97661.50
2019-05-19T04:22:55.884Z,97667.16
2019-05-19T04:23:58.187Z,97661.27
2019-05-19T04:24:59.945Z,97666.16
2019-05-19T04:26:03.133Z,97661.39
2019-05-19T04:27:05.819Z,97664.89
2019-05-19T04:28:08.398Z,97668.80
2019-05-19T04:29:10.861Z,97670.55
2019-05-19T04:30:14.422Z,97669.61
2019-05-19T04:31:17.225Z,97670.84
2019-05-19T04:32:19.577Z,97666.73
2019-05-19T04:33:22.300Z,97659.58
2019-05-19T04:34:24.924Z,97666.02
2019-05-19T04:35:27.682Z,97664.06
2019-05-19T04:36:30.228Z,97660.45
2019-05-19T04:37:33.042Z,97662.38
2019-05-19T04:38:35.371Z,97661.45
2019-05-19T04:39:37.821Z,97656.44
2019-05-19T04:40:41.765Z,97663.98
2019-05-19T04:41:45.010Z,97658.73
2019-05-19T04:42:47.744Z,97660.59
2019-05-19T04:43:49.817Z,97660.58
2019-05-19T04:44:52.283Z,97658.14
2019-05-19T04:45:54.326Z,97655.51
2019-05-19T04:46:57.112Z,97647.32
2019-05-19T04:47:59.711Z,97649.06
2019-05-19T04:49:02.100Z,97652.73
2019-05-19T04:50:05.876Z,97650.57
2019-05-19T04:51:08.344Z,97649.67
2019-05-19T04:52:10.045Z,97650.37
2019-05-19T04:53:12.965Z,97652.69
2019-05-19T04:54:15.065Z,97650.27
2019-05-19T04:55:18.179Z,97649.33
2019-05-19T04:56:20.640Z,97645.94
2019-05-19T04:57:23.149Z,97647.94
2019-05-19T04:58:25.304Z,97644.13
2019-05-19T04:59:27.832Z,97642.67
2019-05-19T05:00:30.813Z,97648.67
2019-05-19T05:01:37.093Z,97648.34
2019-05-19T05:02:39.962Z,97641.57
2019-05-19T05:03:41.861Z,97644.79
2019-05-19T05:04:45.715Z,97646.01
2019-05-19T05:05:48.199Z,97648.77
2019-05-19T05:06:50.837Z,97649.09
2019-05-19T05:07:53.314Z,97642.78
2019-05-19T05:08:56.094Z,97644.08
2019-05-19T05:09:58.205Z,97640.88
2019-05-19T05:11:01.622Z,97638.48
2019-05-19T05:12:04.710Z,97644.23
2019-05-19T05:13:08.387Z,97641.80
2019-05-19T05:14:11.069Z,97646.75
2019-05-19T05:15:14.786Z,97644.31
2019-05-19T05:16:17.336Z,97645.23
2019-05-19T05:17:19.917Z,97646.16
2019-05-19T05:18:25.389Z,97646.79
2019-05-19T05:19:29.783Z,97648.00
2019-05-19T05:20:32.177Z,97649.50
2019-05-19T05:21:35.170Z,97647.83
2019-05-19T05:22:39.713Z,97643.28
2019-05-19T05:23:42.827Z,97649.70
2019-05-19T05:24:44.528Z,97647.45
2019-05-19T05:25:48.248Z,97642.98
2019-05-19T05:26:50.822Z,97646.33
2019-05-19T05:27:52.597Z,97645.87
2019-05-19T05:28:55.627Z,97641.69
2019-05-19T05:29:58.034Z,97644.82
2019-05-19T05:31:00.777Z,97644.87
2019-05-19T05:32:05.337Z,97649.33
2019-05-19T05:33:07.603Z,97649.41
2019-05-19T05:34:10.357Z,97652.42
2019-05-19T05:35:13.864Z,97644.08
2019-05-19T05:36:16.895Z,97649.75
2019-05-19T05:37:19.375Z,97655.47
2019-05-19T05:38:22.136Z,97658.08
2019-05-19T05:39:24.288Z,97653.87
2019-05-19T05:40:27.696Z,97653.99
2019-05-19T05:41:32.103Z,97650.65
2019-05-19T05:42:34.700Z,97650.39
2019-05-19T05:43:37.731Z,97651.08
2019-05-19T05:44:40.681Z,97654.52
2019-05-19T05:45:42.775Z,97651.67
2019-05-19T05:46:45.222Z,97653.27
2019-05-19T05:47:47.809Z,97651.64
2019-05-19T05:48:51.913Z,97652.34
2019-05-19T05:49:57.075Z,97655.63
2019-05-19T05:50:59.778Z,97648.77
2019-05-19T05:52:01.733Z,97658.34
2019-05-19T05:53:04.534Z,97654.14
2019-05-19T05:54:07.409Z,97650.97
2019-05-19T05:55:09.900Z,97659.20
2019-05-19T05:56:12.581Z,97649.86
2019-05-19T05:57:14.876Z,97650.79
2019-05-19T05:58:17.518Z,97641.69
2019-05-19T05:59:20.111Z,97652.33
2019-05-19T06:00:21.921Z,97647.94
2019-05-19T06:01:24.611Z,97647.45
2019-05-19T06:02:28.097Z,97650.30
2019-05-19T06:03:30.638Z,97644.53
2019-05-19T06:04:34.195Z,97646.01
2019-05-19T06:05:36.585Z,97649.47
2019-05-19T06:06:40.127Z,97650.12
2019-05-19T06:07:42.783Z,97647.83
2019-05-19T06:08:45.410Z,97643.30
2019-05-19T06:09:47.988Z,97647.05
2019-05-19T06:10:50.930Z,97645.67
2019-05-19T06:11:53.257Z,97643.95
2019-05-19T06:12:55.500Z,97646.67
2019-05-19T06:13:58.301Z,97642.48
2019-05-19T06:15:01.236Z,97635.42
2019-05-19T06:16:04.550Z,97645.55
2019-05-19T06:17:09.329Z,97639.15
2019-05-19T06:18:12.676Z,97643.45
2019-05-19T06:19:15.990Z,97641.88
2019-05-19T06:20:19.141Z,97638.19
2019-05-19T06:21:22.012Z,97642.88
2019-05-19T06:22:24.433Z,97636.61
2019-05-19T06:23:27.195Z,97637.59
2019-05-19T06:24:30.176Z,97642.92
2019-05-19T06:25:33.888Z,97640.80
2019-05-19T06:26:36.663Z,97638.48
2019-05-19T06:27:39.287Z,97637.25
2019-05-19T06:28:41.997Z,97640.05
2019-05-19T06:29:44.819Z,97635.92
2019-05-19T06:30:47.781Z,97636.52
2019-05-19T06:31:50.527Z,97632.42
2019-05-19T06:32:55.246Z,97637.69
2019-05-19T06:33:57.570Z,97635.76
2019-05-19T06:35:00.009Z,97635.56
2019-05-19T06:36:03.534Z,97633.30
2019-05-19T06:37:06.565Z,97635.66
2019-05-19T06:38:09.515Z,97638.42
2019-05-19T06:39:11.284Z,97634.43
2019-05-19T06:40:14.775Z,97635.23
2019-05-19T06:41:17.231Z,97633.09
2019-05-19T06:42:21.450Z,97637.89
2019-05-19T06:43:24.160Z,97630.60
2019-05-19T06:44:26.895Z,97632.83
2019-05-19T06:45:29.094Z,97635.58
2019-05-19T06:46:31.685Z,97634.14
2019-05-19T06:47:34.483Z,97634.93
2019-05-19T06:48:37.249Z,97635.51
2019-05-19T06:49:40.286Z,97634.62
2019-05-19T06:50:42.836Z,97631.22
2019-05-19T06:51:45.028Z,97628.65
2019-05-19T06:52:47.543Z,97625.98
2019-05-19T06:53:49.901Z,97624.02
2019-05-19T06:54:51.531Z,97633.46
2019-05-19T06:55:54.316Z,97631.28
2019-05-19T06:56:56.582Z,97628.14
2019-05-19T06:57:59.032Z,97637.77
2019-05-19T06:59:01.714Z,97636.91
2019-05-19T07:00:05.722Z,97639.67
2019-05-19T07:01:08.566Z,97634.81
2019-05-19T07:02:11.037Z,97638.69
2019-05-19T07:03:13.738Z,97639.52
2019-05-19T07:04:16.408Z,97638.66
2019-05-19T07:05:19.058Z,97634.57
2019-05-19T07:06:22.638Z,97635.96
2019-05-19T07:07:25.071Z,97640.63
2019-05-19T07:08:27.415Z,97633.22
2019-05-19T07:09:29.751Z,97636.19
2019-05-19T07:10:32.157Z,97632.23
2019-05-19T07:11:34.687Z,97631.90
2019-05-19T07:12:38.444Z,97637.73
2019-05-19T07:13:40.989Z,97637.41
2019-05-19T07:14:43.855Z,97634.15
2019-05-19T07:15:46.048Z,97636.69
2019-05-19T07:16:48.448Z,97636.33
2019-05-19T07:17:51.016Z,97643.70
2019-05-19T07:18:55.959Z,97643.70
2019-05-19T07:19:58.494Z,97642.83
2019-05-19T07:21:01.567Z,97640.36
2019-05-19T07:22:04.968Z,97642.68
2019-05-19T07:23:07.900Z,97653.33
2019-05-19T07:24:12.726Z,97655.14
2019-05-19T07:25:14.828Z,97649.18
2019-05-19T07:26:19.969Z,97655.75
2019-05-19T07:27:22.977Z,97654.71
2019-05-19T07:28:26.189Z,97649.27
2019-05-19T07:29:29.311Z,97652.70
2019-05-19T07:30:31.918Z,97650.24
2019-05-19T07:31:35.530Z,97645.91
2019-05-19T07:32:38.218Z,97653.53
2019-05-19T07:33:40.854Z,97653.34
2019-05-19T07:34:43.520Z,97648.53
2019-05-19T07:35:47.428Z,97644.38
2019-05-19T07:36:51.826Z,97647.31
2019-05-19T07:37:54.826Z,97646.75
2019-05-19T07:38:57.462Z,97650.89
2019-05-19T07:39:59.213Z,97652.94
2019-05-19T07:41:02.186Z,97647.72
2019-05-19T07:42:05.830Z,97648.64
2019-05-19T07:43:08.324Z,97647.30
2019-05-19T07:44:11.216Z,97647.91
2019-05-19T07:45:14.284Z,97651.86
2019-05-19T07:46:16.434Z,97652.11
2019-05-19T07:47:19.017Z,97652.30
2019-05-19T07:48:22.100Z,97645.48
2019-05-19T07:49:24.385Z,97647.31
2019-05-19T07:50:27.401Z,97643.84
2019-05-19T07:51:30.065Z,97642.10
2019-05-19T07:52:32.802Z,97645.48
2019-05-19T07:53:42.870Z,97650.09
2019-05-19T07:54:43.317Z,97650.04
2019-05-19T07:55:47.251Z,97651.67
2019-05-19T07:56:50.010Z,97654.30
2019-05-19T07:57:52.673Z,97656.30
2019-05-19T07:58:56.256Z,97653.54
2019-05-19T07:59:59.097Z,97657.89
2019-05-19T08:01:01.531Z,97656.97
2019-05-19T08:02:05.803Z,97658.77
2019-05-19T08:03:08.294Z,97652.78
2019-05-19T08:04:09.985Z,97659.63
2019-05-19T08:05:12.619Z,97654.44
2019-05-19T08:06:15.353Z,97654.75
2019-05-19T08:07:18.190Z,97654.92
2019-05-19T08:08:22.764Z,97658.92
2019-05-19T08:09:25.272Z,97657.88
2019-05-19T08:10:27.804Z,97655.16
2019-05-19T08:11:30.336Z,97661.19
2019-05-19T08:12:32.708Z,97662.39
2019-05-19T08:13:37.613Z,97661.89
2019-05-19T08:14:40.156Z,97659.14
2019-05-19T08:15:46.171Z,97664.59
2019-05-19T08:16:48.492Z,97655.84
2019-05-19T08:17:51.675Z,97660.41
2019-05-19T08:18:53.519Z,97668.96
2019-05-19T08:19:56.321Z,97660.58
2019-05-19T08:20:59.611Z,97662.47
2019-05-19T08:22:01.463Z,97660.73
2019-05-19T08:23:04.451Z,97653.97
2019-05-19T08:24:07.668Z,97657.47
2019-05-19T08:25:11.221Z,97655.49
2019-05-19T08:26:14.199Z,97659.92
2019-05-19T08:27:16.501Z,97659.50
2019-05-19T08:28:19.011Z,97655.98
2019-05-19T08:29:22.275Z,97659.80
2019-05-19T08:30:25.033Z,97659.92
2019-05-19T08:31:28.046Z,97655.44
2019-05-19T08:32:30.620Z,97653.68
2019-05-19T08:33:33.118Z,97652.71
2019-05-19T08:34:36.048Z,97649.86
2019-05-19T08:35:38.715Z,97650.30
2019-05-19T08:36:40.595Z,97644.91
2019-05-19T08:37:44.754Z,97652.83
2019-05-19T08:38:47.062Z,97652.72
2019-05-19T08:39:49.666Z,97646.33
2019-05-19T08:40:53.394Z,97654.88
2019-05-19T08:41:56.021Z,97647.09
2019-05-19T08:42:57.742Z,97656.75
2019-05-19T08:44:03.682Z,97644.88
2019-05-19T08:45:07.944Z,97644.95
2019-05-19T08:46:12.840Z,97645.17
2019-05-19T08:47:15.638Z,97643.45
2019-05-19T08:48:18.591Z,97642.64
2019-05-19T08:49:21.598Z,97638.56
2019-05-19T08:50:24.369Z,97642.34
2019-05-19T08:51:27.105Z,97635.67
2019-05-19T08:52:29.512Z,97632.38
2019-05-19T08:53:33.907Z,97635.53
2019-05-19T08:54:39.176Z,97631.63
2019-05-19T08:55:41.981Z,97630.69
2019-05-19T08:56:46.621Z,97631.13
2019-05-19T08:57:49.419Z,97636.11
2019-05-19T08:58:51.816Z,97630.19
2019-05-19T08:59:54.535Z,97634.33
2019-05-19T09:00:56.550Z,97631.34
2019-05-19T09:01:59.386Z,97635.08
2019-05-19T09:03:03.033Z,97631.88
2019-05-19T09:04:05.926Z,97632.25
2019-05-19T09:05:09.052Z,97629.44
2019-05-19T09:06:12.269Z,97630.87
2019-05-19T09:07:14.604Z,97629.80
2019-05-19T09:08:17.681Z,97624.66
2019-05-19T09:09:22.020Z,97633.27
2019-05-19T09:10:25.670Z,97628.23
2019-05-19T09:11:28.481Z,97617.69
2019-05-19T09:12:31.188Z,97627.47
2019-05-19T09:13:34.557Z,97626.58
2019-05-19T09:14:38.951Z,97626.36
2019-05-19T09:15:42.671Z,97628.38
2019-05-19T09:16:46.365Z,97624.79
2019-05-19T09:17:49.767Z,97630.29
2019-05-19T09:18:51.521Z,97630.28
2019-05-19T09:19:55.169Z,97632.27
2019-05-19T09:20:57.500Z,97626.44
2019-05-19T09:21:59.295Z,97638.59
2019-05-19T09:23:02.963Z,97631.80
2019-05-19T09:24:06.177Z,97630.29
2019-05-19T09:25:09.514Z,97632.83
2019-05-19T09:26:12.374Z,97639.50
2019-05-19T09:27:15.517Z,97636.42
2019-05-19T09:28:18.385Z,97632.67
2019-05-19T09:29:20.870Z,97637.23
2019-05-19T09:30:24.705Z,97639.94
2019-05-19T09:31:27.100Z,97633.90
2019-05-19T09:32:30.367Z,97636.69
2019-05-19T09:33:32.678Z,97634.16
2019-05-19T09:34:35.738Z,97638.36
2019-05-19T09:35:38.979Z,97635.36
2019-05-19T09:36:41.045Z,97639.29
2019-05-19T09:37:43.972Z,97644.27
2019-05-19T09:38:46.466Z,97642.48
2019-05-19T09:39:48.757Z,97643.68
2019-05-19T09:40:51.040Z,97644.36
2019-05-19T09:41:53.712Z,97652.23
2019-05-19T09:42:56.904Z,97643.58
2019-05-19T09:43:59.909Z,97650.20
2019-05-19T09:45:07.528Z,97646.30
2019-05-19T09:46:09.820Z,97645.54
2019-05-19T09:47:14.190Z,97647.05
2019-05-19T09:48:16.857Z,97644.20
2019-05-19T09:49:32.262Z,97648.52
2019-05-19T09:50:34.798Z,97642.19
2019-05-19T09:51:37.084Z,97635.78
2019-05-19T09:52:41.981Z,97636.58
2019-05-19T09:53:44.553Z,97635.73
2019-05-19T09:54:47.249Z,97637.06
2019-05-19T09:55:51.940Z,97640.09
2019-05-19T09:56:56.083Z,97630.30
2019-05-19T09:57:58.123Z,97631.86
2019-05-19T09:59:01.173Z,97634.38
2019-05-19T10:00:06.163Z,97636.89
2019-05-19T10:01:09.163Z,97637.25
2019-05-19T10:02:13.167Z,97634.02
2019-05-19T10:03:15.595Z,97629.86
2019-05-19T10:04:17.420Z,97637.17
2019-05-19T10:05:19.997Z,97633.16
2019-05-19T10:06:22.400Z,97637.15
2019-05-19T10:07:26.305Z,97633.73
2019-05-19T10:08:30.513Z,97635.97
2019-05-19T10:10:02.701Z,97630.11
2019-05-19T10:11:30.157Z,97631.37
2019-05-19T10:12:34.133Z,97628.09
2019-05-19T10:13:37.846Z,97626.54
2019-05-19T10:14:40.916Z,97625.92
2019-05-19T10:15:44.389Z,97622.27
2019-05-19T10:16:47.369Z,97625.35
2019-05-19T10:17:50.231Z,97624.67
2019-05-19T10:18:52.902Z,97617.89
2019-05-19T10:19:55.501Z,97616.77
2019-05-19T10:20:59.257Z,97619.66
2019-05-19T10:22:01.553Z,97617.63
2019-05-19T10:23:05.617Z,97627.35
2019-05-19T10:24:08.031Z,97624.30
2019-05-19T10:25:21.587Z,97621.70
2019-05-19T10:26:16.024Z,97620.86
2019-05-19T10:27:21.627Z,97621.12
2019-05-19T10:28:22.791Z,97617.41
2019-05-19T10:29:25.222Z,97622.16
2019-05-19T10:30:28.018Z,97624.24
2019-05-19T10:31:30.732Z,97622.53
2019-05-19T10:32:33.227Z,97616.05
2019-05-19T10:33:36.103Z,97616.23
2019-05-19T10:34:41.911Z,97619.88
2019-05-19T10:35:44.919Z,97610.71
2019-05-19T10:36:49.139Z,97612.06
2019-05-19T10:37:51.697Z,97617.03
2019-05-19T10:38:56.623Z,97607.00
2019-05-19T10:40:00.271Z,97607.72
2019-05-19T10:41:04.096Z,97614.14
2019-05-19T10:42:07.181Z,97611.16
2019-05-19T10:43:09.384Z,97614.77
2019-05-19T10:44:12.742Z,97607.13
2019-05-19T10:45:14.940Z,97608.11
2019-05-19T10:46:19.906Z,97612.56
2019-05-19T10:47:22.441Z,97612.63
2019-05-19T10:48:24.905Z,97611.08
2019-05-19T10:49:27.277Z,97615.48
2019-05-19T10:50:29.988Z,97606.23
2019-05-19T10:51:31.708Z,97606.17
2019-05-19T10:52:35.719Z,97609.89
2019-05-19T10:53:38.688Z,97605.08
2019-05-19T10:54:41.593Z,97603.89
2019-05-19T10:55:45.372Z,97600.39
2019-05-19T10:56:48.117Z,97606.02
2019-05-19T10:57:51.306Z,97606.44
2019-05-19T10:58:54.088Z,97603.41
2019-05-19T10:59:56.588Z,97601.92
2019-05-19T11:01:00.104Z,97601.93
2019-05-19T11:02:03.506Z,97605.50
2019-05-19T11:03:09.100Z,97602.06
2019-05-19T11:04:12.146Z,97593.75
2019-05-19T11:05:15.101Z,97597.77
2019-05-19T11:06:19.938Z,97591.67
2019-05-19T11:07:23.412Z,97595.73
2019-05-19T11:08:28.155Z,97593.11
2019-05-19T11:09:31.272Z,97596.94
2019-05-19T11:10:33.694Z,97591.42
2019-05-19T11:11:36.092Z,97592.89
2019-05-19T11:12:38.324Z,97596.30
2019-05-19T11:13:42.323Z,97594.16
2019-05-19T11:14:47.557Z,97597.41
2019-05-19T11:15:52.344Z,97589.52
2019-05-19T11:16:54.514Z,97588.27
2019-05-19T11:17:58.923Z,97593.94
2019-05-19T11:19:00.786Z,97594.70
2019-05-19T11:20:05.862Z,97599.52
2019-05-19T11:21:10.036Z,97597.50
2019-05-19T11:22:12.817Z,97591.45
2019-05-19T11:23:24.654Z,97594.47
2019-05-19T11:24:27.190Z,97593.20
2019-05-19T11:25:33.968Z,97587.37
2019-05-19T11:26:34.132Z,97582.26
2019-05-19T11:27:37.035Z,97580.34
2019-05-19T11:28:41.276Z,97582.05
2019-05-19T11:29:44.519Z,97580.30
2019-05-19T11:30:47.883Z,97583.58
2019-05-19T11:31:51.483Z,97577.69
2019-05-19T11:32:53.810Z,97576.19
2019-05-19T11:33:57.331Z,97578.01
2019-05-19T11:35:00.702Z,97577.81
2019-05-19T11:36:03.464Z,97577.98
2019-05-19T11:37:07.473Z,97572.12
2019-05-19T11:38:10.980Z,97569.66
2019-05-19T11:39:14.041Z,97580.30
2019-05-19T11:40:16.514Z,97575.17
2019-05-19T11:41:20.180Z,97574.09
2019-05-19T11:42:23.714Z,97576.48
2019-05-19T11:43:27.609Z,97574.78
2019-05-19T11:44:32.424Z,97577.87
2019-05-19T11:45:35.083Z,97568.28
2019-05-19T11:46:37.551Z,97567.16
2019-05-19T11:47:42.008Z,97563.61
2019-05-19T11:48:45.036Z,97563.96
2019-05-19T11:49:47.730Z,97568.70
2019-05-19T11:50:50.505Z,97568.22
2019-05-19T11:51:53.701Z,97566.08
2019-05-19T11:52:56.156Z,97572.41
2019-05-19T11:53:58.468Z,97572.84
2019-05-19T11:55:00.979Z,97568.27
2019-05-19T11:56:06.594Z,97567.83
2019-05-19T11:57:08.319Z,97565.54
2019-05-19T11:58:10.402Z,97569.70
2019-05-19T11:59:13.113Z,97562.58
2019-05-19T12:00:17.347Z,97563.86
2019-05-19T12:01:20.683Z,97566.42
2019-05-19T12:02:23.154Z,97563.38
2019-05-19T12:03:26.394Z,97560.41
2019-05-19T12:04:30.290Z,97564.55
2019-05-19T12:05:35.592Z,97561.35
2019-05-19T12:06:39.987Z,97552.83
2019-05-19T12:07:43.021Z,97551.92
2019-05-19T12:08:45.393Z,97546.96
2019-05-19T12:09:50.656Z,97549.49
2019-05-19T12:10:53.421Z,97544.11
2019-05-19T12:11:58.233Z,97549.36
2019-05-19T12:13:01.154Z,97551.50
2019-05-19T12:14:04.476Z,97548.64
2019-05-19T12:15:08.601Z,97552.78
2019-05-19T12:16:10.876Z,97549.88
2019-05-19T12:17:13.821Z,97545.97
2019-05-19T12:18:16.950Z,97543.95
2019-05-19T12:19:19.885Z,97540.95
2019-05-19T12:20:22.573Z,97537.30
2019-05-19T12:21:25.609Z,97544.28
2019-05-19T12:22:28.292Z,97540.55